Monday, February 19, 2018, 5:08 AM EST
Back to Local

KBED, Bedford Hanscom Field

Location: Concord, MA, United States Lat: 42.467
Local Time: 5:08 AM EST (10:08 GMT) Lon: -71.3
Time Zone: US/Eastern Elev: 134 ft

Show me the last for .
Show Decoded

2018-02-19 03:56 METAR KBED 190856Z AUTO 00000KT 10SM CLR M07/M08 A3051 RMK AO2 SLP350 I1001
                 I3002 T10721083 58002 =
2018-02-19 02:56 METAR KBED 190756Z AUTO 32003KT 10SM CLR M07/M07 A3052 RMK AO2 SLP353 T10671067
                 =
2018-02-19 01:56 METAR KBED 190656Z AUTO 00000KT 10SM CLR M06/M07 A3052 RMK AO2 SLP352 I1001
                 T10611067 =
2018-02-19 00:56 METAR KBED 190556Z AUTO 00000KT 10SM CLR M06/M06 A3052 RMK AO2 SLP352 I1001
                 I6001 T10561061 10022 21067 50004 =
2018-02-18 23:56 METAR KBED 190456Z AUTO 00000KT 10SM CLR M06/M07 A3053 RMK AO2 SLP354 T10561072
                 400611056 =
2018-02-18 22:56 METAR KBED 190356Z AUTO 00000KT 10SM CLR M04/M06 A3052 RMK AO2 SLP351 T10441061
                 =
2018-02-18 21:56 METAR KBED 190256Z 00000KT 10SM CLR M04/M06 A3051 RMK AO2 SLP348 T10441061 53028
                 =
2018-02-18 20:56 METAR KBED 190156Z 00000KT 10SM CLR M03/M07 A3048 RMK AO2 SLP338 T10331067 =
2018-02-18 19:56 METAR KBED 190056Z 25004KT 10SM CLR M01/M06 A3044 RMK AO2 SLP326 T10061056 =
2018-02-18 18:56 METAR KBED 182356Z 31006KT 10SM CLR 02/M07 A3042 RMK AO2 SLP318 T00221067 10061
                 20017 53044 =
2018-02-18 17:56 METAR KBED 182256Z 30006KT 10SM CLR 03/M07 A3038 RMK AO2 PRESRR SLP303 T00331067
                 =
2018-02-18 16:56 METAR KBED 182156Z 28007KT 10SM FEW050 05/M07 A3033 RMK AO2 SLP285 T00501067 =
2018-02-18 15:56 METAR KBED 182056Z 31009KT 10SM FEW050 06/M06 A3029 RMK AO2 SLP274 T00561061
                 51033 =
2018-02-18 14:56 METAR KBED 181956Z 28003KT 10SM CLR 06/M06 A3027 RMK AO2 SLP267 T00561061 =
2018-02-18 13:56 METAR KBED 181856Z 31011KT 10SM SCT050 05/M06 A3024 RMK AO2 SLP256 T00501061 =
2018-02-18 12:56 METAR KBED 181756Z 32013G21KT 10SM SCT042 04/M05 A3020 RMK AO2 SLP241 60000
                 T00391050 10044 21022 51022 =
2018-02-18 11:56 METAR KBED 181656Z 32015G23KT 10SM BKN041 BKN049 04/M05 A3017 RMK AO2 SLP231
                 T00391050 =
2018-02-18 10:56 METAR KBED 181556Z 32014G21KT 10SM SCT030 BKN040 03/M04 A3019 RMK AO2 SLP238
                 T00281039 =
2018-02-18 09:56 METAR KBED 181456Z 31011G19KT 10SM CLR 02/M03 A3013 RMK AO2 SLP219 60000
                 T00221028 53050 =
2018-02-18 08:56 METAR KBED 181356Z 32010G16KT 10SM CLR 01/M02 A3008 RMK AO2 SLP202 T00061022 =
2018-02-18 07:56 METAR KBED 181256Z 30005KT 10SM SCT035 M02/M03 A3003 RMK AO2 RAE32 SLP185 P0000
                 T10171028 =
2018-02-18 07:26 METAR KBED 181226Z 31007KT 10SM -RA SCT035 M02/M03 A3001 RMK AO2 P0000 T10171033
                 =
2018-02-18 06:56 METAR KBED 181156Z 31005KT 4SM -RA BR BKN006 OVC036 M02/M03 A2998 RMK AO2
                 RAB55SNE54 SLP170 P0001 60003 70003 T10171028 11006 21017 53034 =
2018-02-18 06:32 METAR KBED 181132Z 33005KT 3SM -SN BR FEW006 FEW021 OVC032 M01/M02 A2996 RMK AO2
                 P0000 T10111017 =
2018-02-18 06:08 METAR KBED 181108Z AUTO 31007KT 2SM -SN BR SCT006 BKN016 OVC022 M01/M02 A2996
                 RMK AO2 P0000 T10061017 =
2018-02-18 05:56 METAR KBED 181056Z AUTO 31010KT 1SM R11/P6000FT -SN BR SCT007 OVC014 M01/M02
                 A2995 RMK AO2 SLP157 P0000 T10061017 =
2018-02-18 05:17 METAR KBED 181017Z AUTO 31008KT 1SM R11/5000VP6000FT -SN BR FEW004 OVC011
                 M01/M01 A2992 RMK AO2 P0000 T10061011 =

Support USWX by starting your Amazon purchase here.